Hlavní strana
METAR-TAF:

METAR-TAF

Letiště :

Weno, Mikronésie

zeměpisná šířka: 07-28N, zeměpisná délka: 151-51E, výška: 3 m

Aktuální stav počasí

Zpráva byla vytvořena před 45 minutami, v 13:52 UTC
vítr z různých směrů 5 kt
Teplota 26°C
Vlhkost vzduchu 89%
Tlak 1010 hPa
Viditelnost: 24.1 km
Polojasno ve výšce 1400 ft
Oblačno až skoro zataženo ve výšce 12000 ft
Zataženo ve výšce 28000 ft

METAR: PTKK 241352Z VRB05KT 15SM SCT014 BKN120 OVC280 26/24 A2982 RMK SLP100 T02640244

Čas: 00:37 (14:37 UTC)

Předpověď počasí

Zpráva byla vytvořena před 3 hodinami a 17 minutami, v 11:20 UTC
Předpověď platná od 24 v 12 UTC do 25 v 12 UTC
vítr z různých směrů 5 kt
Viditelnost: 10 km
Skoro jasno ve výšce 1400 ft

TAF: PTKK 241120Z 2412/2512 VRB05KT P6SM FEW014

Stav a předpovědi počasí z více než 4 000 letišť (zprávy METAR a TAF).

Červené a žluté tečky na mapě představují dostupné meteorologické stanice.

Když kurzor umístíte na tečku, zobrazí se název stanice.

Pak kliknutím zobrazíte stav a předpověď počasí.

Chcete-li změnit mapu, kliknutím na zelené tlačítko se znaménkem +mapu přiblížíte, kliknutím na zelené tlačítko se znaménkem – mapu oddálíte a kliknutím na zelené šipky přejdete na sousední mapy.


METAR-TAF: